Monticello, AR

3:29 AM CDT on May 26, 2015 (GMT -0500)
RAWS | | Change Station
CLOSE
Current Station
Personal Weather Station
Location: Monticello, AR
Elevation: 183 ft
Nearby Weather Stations

Elev 183 ft 33.59 °N, 91.81 °W | Updated 29 minutes ago

Light Rain
Light Rain
62 °F
Feels Like 62 °F
N
7
Wind Variable Wind from SSE
Gusts 12.0 mph

Today
High -- | Low -- °F
--% Chance of Precip.
Yesterday
High -- | Low -- °F
Precip. -- in
6:00 AM 8:08 PM
First Quarter, 56% visible
Pressure 29.96 in
Visibility 10.0 miles
Clouds Few 300 ft
Mostly Cloudy 11000 ft
Dew Point 62 °F
Humidity 100%
Rainfall in
Snow Depth Not available.
UV 0 out of 12
Pollen 2.90 out of 12
Air Quality Not available.
Flu Activity No Activity
SPECI KLLQ 260812Z AUTO 14005KT 10SM -RA FEW003 BKN110 17/17 A2996 RMK AO2 P0001 T01720167

More Conditions Fewer Conditions

Pressure 29.96 in
Visibility 10.0 miles
Clouds Few 300 ft
Mostly Cloudy 11000 ft
Dew Point 62 °F
Humidity 100%
Rainfall in
Snow Depth Not available.
UV 0 out of 12
Pollen 2.90 out of 12
Air Quality Not available.
Flu Activity No Activity
SPECI KLLQ 260812Z AUTO 14005KT 10SM -RA FEW003 BKN110 17/17 A2996 RMK AO2 P0001 T01720167

More Conditions Fewer Conditions

10-Day Weather Forecast

Almanac

Astronomy

May. 26, 2015 Rise Set
Actual Time
Civil Twilight
Nautical Twilight
Astronomical Twilight
Moon
Length of Visible Light
Length of Day
Tomorrow will be .
, % of the Moon is Illuminated

Today's Extremes

State Highs State Lows

Community

WunderPhotos

Upload Photos

1,824,302 photos uploaded!

WunderBlogs® & News

Nearby

Air Quality

  Air Quality AQ Index Pollutant
Not available.

Snow Depth

Station Depth Elevation

Earthquake Activity

City Distance Mag. Time & Date
Minimum magnitude displayed is 2.5.

Coastal Water Temperatures

Place Temperature

Stations

Nearby Weather Stations

Station Location Temp. Windchill Dew Point Humidity Wind Precip. Elev Updated Type
                   
Flood Watch / Flood Statement
Statement as of 3:27 AM CDT on May 26, 2015

... Flash Flood Watch is cancelled...

The Flash Flood Watch for portions of Arkansas has been
canceled. The heaviest rain have moved east of the area... with
only some lingering rain across portions of southeast Arkansas.
Rain chances there will continue to diminish as this system
continues to push to the east.